createdAt,value
2022-12-07T00:00:02.961Z,88.27
2022-12-07T00:01:02.710Z,88.27
2022-12-07T00:02:02.759Z,88.73
2022-12-07T00:03:02.757Z,88.87
2022-12-07T00:04:02.704Z,88.56
2022-12-07T00:05:02.702Z,88.67
2022-12-07T00:06:02.723Z,88.6
2022-12-07T00:07:02.681Z,88.22
2022-12-07T00:08:02.743Z,88.41
2022-12-07T00:09:02.675Z,88.21
2022-12-07T00:10:02.965Z,88.36
2022-12-07T00:11:02.674Z,88.19
2022-12-07T00:12:02.676Z,88.25
2022-12-07T00:13:02.694Z,88.18
2022-12-07T00:14:02.687Z,88.04
2022-12-07T00:15:02.693Z,88.01
2022-12-07T00:16:02.826Z,88.09
2022-12-07T00:17:02.739Z,88
2022-12-07T00:18:02.709Z,88.02
2022-12-07T00:19:02.709Z,87.98
2022-12-07T00:20:02.956Z,88.21
2022-12-07T00:21:02.691Z,88.42
2022-12-07T00:22:02.677Z,88.64
2022-12-07T00:23:02.680Z,89.03
2022-12-07T00:24:02.689Z,89.2
2022-12-07T00:25:02.703Z,89.46
2022-12-07T00:26:02.680Z,89.62
2022-12-07T00:27:02.695Z,89.74
2022-12-07T00:28:02.697Z,89.84
2022-12-07T00:29:02.703Z,90.24
2022-12-07T00:30:03.105Z,90.81
2022-12-07T00:31:02.716Z,90.81
2022-12-07T00:32:02.780Z,92.19
2022-12-07T00:33:02.698Z,92.59
2022-12-07T00:34:02.687Z,92.8
2022-12-07T00:35:02.685Z,93.02
2022-12-07T00:36:02.695Z,93.61
2022-12-07T00:37:02.694Z,93.72
2022-12-07T00:38:02.712Z,93.79
2022-12-07T00:39:02.690Z,94.54
2022-12-07T00:40:02.967Z,94.48
2022-12-07T00:41:02.686Z,94.8
2022-12-07T00:42:02.700Z,94.78
2022-12-07T00:43:02.717Z,94.87
2022-12-07T00:44:02.690Z,94.87
2022-12-07T00:45:02.696Z,94.87
2022-12-07T00:46:02.718Z,94.87
2022-12-07T00:47:02.683Z,94.87
2022-12-07T00:48:02.781Z,94.87
2022-12-07T00:49:02.687Z,94.87
2022-12-07T00:50:02.959Z,94.87
2022-12-07T00:51:02.692Z,94.84
2022-12-07T00:52:02.692Z,94.92
2022-12-07T00:53:02.694Z,94.83
2022-12-07T00:54:02.689Z,94.87
2022-12-07T00:55:02.696Z,94.83
2022-12-07T00:56:02.694Z,94.85
2022-12-07T00:57:02.692Z,94.71
2022-12-07T00:58:02.710Z,94.53
2022-12-07T00:59:02.683Z,94.68
2022-12-07T01:00:02.977Z,94.43
2022-12-07T01:01:02.831Z,94.43
2022-12-07T01:02:02.695Z,94.5
2022-12-07T01:03:02.758Z,94.34
2022-12-07T01:04:02.707Z,94.19
2022-12-07T01:05:02.691Z,94.37
2022-12-07T01:06:02.696Z,94.5
2022-12-07T01:07:02.696Z,94.73
2022-12-07T01:08:02.809Z,94.73
2022-12-07T01:09:02.675Z,94.73
2022-12-07T01:10:02.877Z,94.73
2022-12-07T01:11:02.677Z,94.73
2022-12-07T01:12:02.668Z,94.73
2022-12-07T01:13:02.711Z,94.73
2022-12-07T01:14:02.675Z,94.73
2022-12-07T01:15:02.679Z,94.73
2022-12-07T01:16:02.699Z,94.73
2022-12-07T01:17:02.732Z,94.73
2022-12-07T01:18:02.718Z,94.73
2022-12-07T01:19:02.672Z,94.73
2022-12-07T01:20:03.009Z,94.73
2022-12-07T01:21:02.679Z,94.73
2022-12-07T01:22:02.676Z,94.73
2022-12-07T01:23:02.718Z,94.73
2022-12-07T01:24:02.687Z,94.73
2022-12-07T01:25:02.670Z,94.73
2022-12-07T01:26:02.676Z,94.73
2022-12-07T01:27:02.673Z,94.73
2022-12-07T01:28:02.720Z,94.73
2022-12-07T01:29:02.689Z,94.73
2022-12-07T01:30:02.830Z,94.73
2022-12-07T01:31:02.792Z,94.73
2022-12-07T01:32:02.724Z,94.73
2022-12-07T01:33:02.695Z,94.73
2022-12-07T01:34:02.690Z,94.73
2022-12-07T01:35:02.700Z,94.73
2022-12-07T01:36:02.694Z,94.73
2022-12-07T01:37:02.697Z,94.73
2022-12-07T01:38:02.746Z,94.73
2022-12-07T01:39:02.706Z,94.73
2022-12-07T01:40:02.921Z,94.73
2022-12-07T01:41:02.700Z,94.73
2022-12-07T01:42:02.697Z,94.73
2022-12-07T01:43:02.696Z,94.73
2022-12-07T01:44:02.688Z,94.91
2022-12-07T01:45:02.693Z,94.13
2022-12-07T01:46:02.792Z,94.13
2022-12-07T01:47:02.705Z,93.52
2022-12-07T01:48:02.730Z,93.17
2022-12-07T01:49:02.711Z,92.78
2022-12-07T01:50:02.991Z,92.64
2022-12-07T01:51:02.687Z,92.19
2022-12-07T01:52:02.680Z,91.69
2022-12-07T01:53:02.697Z,91.69
2022-12-07T01:54:02.681Z,91.35
2022-12-07T01:55:02.710Z,90.98
2022-12-07T01:56:02.695Z,91.17
2022-12-07T01:57:02.696Z,90.96
2022-12-07T01:58:02.703Z,91
2022-12-07T01:59:02.690Z,90.64
2022-12-07T02:00:03.036Z,89.99
2022-12-07T02:01:02.773Z,89.99
2022-12-07T02:02:02.747Z,90.06
2022-12-07T02:03:02.809Z,89.58
2022-12-07T02:04:02.705Z,89.33
2022-12-07T02:05:02.693Z,89.33
2022-12-07T02:06:02.694Z,89.14
2022-12-07T02:07:02.676Z,88.78
2022-12-07T02:08:02.795Z,88.45
2022-12-07T02:09:02.752Z,88.71
2022-12-07T02:10:02.977Z,88.58
2022-12-07T02:11:02.692Z,88.93
2022-12-07T02:12:02.687Z,88.94
2022-12-07T02:13:02.704Z,88.94
2022-12-07T02:14:02.694Z,88.57
2022-12-07T02:15:02.684Z,88.27
2022-12-07T02:16:02.769Z,88.37
2022-12-07T02:17:02.677Z,88.38
2022-12-07T02:18:02.693Z,88.37
2022-12-07T02:19:02.696Z,88.33
2022-12-07T02:20:02.948Z,88.08
2022-12-07T02:21:02.679Z,87.85
2022-12-07T02:22:02.677Z,87.71
2022-12-07T02:23:02.713Z,87.73
2022-12-07T02:24:02.676Z,87.36
2022-12-07T02:25:02.677Z,87.25
2022-12-07T02:26:02.678Z,87.11
2022-12-07T02:27:02.678Z,87.15
2022-12-07T02:28:02.709Z,87.13
2022-12-07T02:29:02.699Z,87.36
2022-12-07T02:30:03.003Z,87.1
2022-12-07T02:31:02.742Z,87.1
2022-12-07T02:32:02.695Z,87.71
2022-12-07T02:33:02.708Z,87.45
2022-12-07T02:34:02.672Z,87.55
2022-12-07T02:35:02.676Z,87.42
2022-12-07T02:36:02.682Z,87.25
2022-12-07T02:37:02.697Z,87.09
2022-12-07T02:38:02.702Z,87.45
2022-12-07T02:39:02.686Z,87.28
2022-12-07T02:40:03.049Z,87.16
2022-12-07T02:43:02.723Z,87.07
2022-12-07T02:44:02.693Z,87.23
2022-12-07T02:45:02.702Z,87.31
2022-12-07T02:46:02.757Z,87.11
2022-12-07T02:47:02.706Z,87.22
2022-12-07T02:48:02.710Z,87.14
2022-12-07T02:49:02.696Z,87.14
2022-12-07T02:50:03.040Z,87.35
2022-12-07T02:51:02.695Z,87.45
2022-12-07T02:52:02.698Z,87.4
2022-12-07T02:53:02.705Z,87.54
2022-12-07T02:54:02.699Z,87.6
2022-12-07T02:55:02.690Z,87.6
2022-12-07T02:56:02.695Z,87.44
2022-12-07T02:57:02.693Z,87.98
2022-12-07T02:58:02.717Z,88.26
2022-12-07T02:59:02.739Z,88.15
2022-12-07T03:00:03.188Z,87.79
2022-12-07T03:01:02.715Z,87.79
2022-12-07T03:02:02.743Z,88.16
2022-12-07T03:03:02.826Z,88.17
2022-12-07T03:04:02.733Z,88.08
2022-12-07T03:05:02.702Z,88.23
2022-12-07T03:06:02.704Z,88.68
2022-12-07T03:07:02.695Z,88.5
2022-12-07T03:08:02.786Z,88.74
2022-12-07T03:09:02.695Z,88.85
2022-12-07T03:10:02.895Z,88.77
2022-12-07T03:11:02.694Z,88.59
2022-12-07T03:12:02.692Z,88.46
2022-12-07T03:13:02.710Z,88.59
2022-12-07T03:14:02.701Z,88.59
2022-12-07T03:15:02.693Z,88.17
2022-12-07T03:16:02.812Z,87.81
2022-12-07T03:17:02.704Z,87.92
2022-12-07T03:18:02.712Z,87.97
2022-12-07T03:19:02.700Z,88.06
2022-12-07T03:20:03.025Z,88.06
2022-12-07T03:21:02.696Z,87.16
2022-12-07T03:22:02.695Z,87.41
2022-12-07T03:23:02.707Z,87.09
2022-12-07T03:24:02.677Z,87.07
2022-12-07T03:25:02.682Z,87.47
2022-12-07T03:26:02.705Z,87.45
2022-12-07T03:27:02.702Z,87.58
2022-12-07T03:28:02.706Z,87.69
2022-12-07T03:29:02.683Z,87.5
2022-12-07T03:30:03.014Z,87.12
2022-12-07T03:31:02.864Z,87.1
2022-12-07T03:32:02.692Z,87.16
2022-12-07T03:33:02.717Z,87.3
2022-12-07T03:34:02.680Z,87.71
2022-12-07T03:35:02.684Z,87.78
2022-12-07T03:36:02.695Z,87.72
2022-12-07T03:37:02.686Z,87.72
2022-12-07T03:38:02.717Z,87.84
2022-12-07T03:39:02.694Z,87.62
2022-12-07T03:40:02.952Z,87.18
2022-12-07T03:41:02.679Z,87.05
2022-12-07T03:42:02.681Z,86.83
2022-12-07T03:43:02.740Z,87.59
2022-12-07T03:44:02.695Z,87.9
2022-12-07T03:45:02.682Z,87.91
2022-12-07T03:46:02.739Z,88.03
2022-12-07T03:47:02.808Z,88.09
2022-12-07T03:48:02.708Z,88.11
2022-12-07T03:49:02.700Z,87.89
2022-12-07T03:50:02.862Z,87.85
2022-12-07T03:51:02.697Z,87.87
2022-12-07T03:52:02.698Z,87.96
2022-12-07T03:53:02.715Z,88.21
2022-12-07T03:54:02.698Z,88.53
2022-12-07T03:55:02.735Z,88.53
2022-12-07T03:56:02.697Z,88.12
2022-12-07T03:57:02.694Z,88.45
2022-12-07T03:58:02.722Z,88.2
2022-12-07T03:59:02.699Z,88.23
2022-12-07T04:00:02.912Z,88.34
2022-12-07T04:01:02.719Z,88.34
2022-12-07T04:02:02.794Z,88.82
2022-12-07T04:03:02.737Z,88.54
2022-12-07T04:04:02.699Z,87.64
2022-12-07T04:05:02.694Z,87.31
2022-12-07T04:06:02.694Z,86.83
2022-12-07T04:07:02.693Z,86.72
2022-12-07T04:08:02.765Z,86.59
2022-12-07T04:09:02.698Z,86.34
2022-12-07T04:10:03.055Z,86.4
2022-12-07T04:11:02.694Z,85.87
2022-12-07T04:12:02.724Z,85.81
2022-12-07T04:13:02.704Z,85.77
2022-12-07T04:14:02.699Z,85.41
2022-12-07T04:15:02.703Z,85.42
2022-12-07T04:16:02.861Z,85.49
2022-12-07T04:17:02.677Z,85.78
2022-12-07T04:18:02.715Z,85.61
2022-12-07T04:19:02.697Z,85.34
2022-12-07T04:20:02.871Z,85.35
2022-12-07T04:21:02.703Z,85.53
2022-12-07T04:22:02.692Z,85.41
2022-12-07T04:23:02.733Z,85.29
2022-12-07T04:24:02.695Z,85.17
2022-12-07T04:25:02.701Z,85.18
2022-12-07T04:26:02.691Z,85.12
2022-12-07T04:27:02.696Z,84.87
2022-12-07T04:28:02.697Z,85.24
2022-12-07T04:29:07.465Z,85.19
2022-12-07T04:30:03.057Z,85.12
2022-12-07T04:31:02.777Z,85.12
2022-12-07T04:32:02.678Z,85.27
2022-12-07T04:33:02.713Z,85.29
2022-12-07T04:34:02.702Z,85.34
2022-12-07T04:35:02.681Z,85.43
2022-12-07T04:36:02.678Z,85.43
2022-12-07T04:37:02.695Z,85.33
2022-12-07T04:38:02.714Z,85.46
2022-12-07T04:39:02.691Z,85.66
2022-12-07T04:40:02.998Z,85.73
2022-12-07T04:41:02.679Z,85.87
2022-12-07T04:42:02.707Z,85.99
2022-12-07T04:43:02.710Z,85.91
2022-12-07T04:44:02.679Z,86.36
2022-12-07T04:45:02.763Z,86.41
2022-12-07T04:46:02.719Z,86.32
2022-12-07T04:47:02.786Z,86.38
2022-12-07T04:48:02.709Z,86.47
2022-12-07T04:49:02.718Z,86.36
2022-12-07T04:50:03.070Z,86.5
2022-12-07T04:51:02.681Z,86.27
2022-12-07T04:52:02.700Z,86.09
2022-12-07T04:53:02.708Z,85.86
2022-12-07T04:54:02.702Z,85.85
2022-12-07T04:55:02.703Z,85.83
2022-12-07T04:56:02.700Z,85.62
2022-12-07T04:57:02.698Z,85.43
2022-12-07T04:58:02.708Z,85.52
2022-12-07T04:59:02.695Z,85.37
2022-12-07T05:00:03.064Z,85.28
2022-12-07T05:01:02.867Z,85.28
2022-12-07T05:02:02.744Z,85.05
2022-12-07T05:03:02.726Z,84.55
2022-12-07T05:04:02.691Z,84.64
2022-12-07T05:05:02.692Z,84.45
2022-12-07T05:06:02.698Z,84.24
2022-12-07T05:07:02.698Z,83.9
2022-12-07T05:08:02.815Z,83.85
2022-12-07T05:09:02.696Z,84.13
2022-12-07T05:10:03.045Z,84.01
2022-12-07T05:11:02.694Z,83.63
2022-12-07T05:12:02.695Z,83.65
2022-12-07T05:13:02.709Z,83.39
2022-12-07T05:14:02.699Z,83.54
2022-12-07T05:15:02.703Z,84.4
2022-12-07T05:16:02.752Z,84.27
2022-12-07T05:17:02.682Z,83.99
2022-12-07T05:18:02.704Z,83.91
2022-12-07T05:19:02.696Z,83.58
2022-12-07T05:20:02.902Z,83.52
2022-12-07T05:21:02.705Z,83.63
2022-12-07T05:22:02.700Z,83.84
2022-12-07T05:23:02.707Z,83.9
2022-12-07T05:24:02.682Z,84.06
2022-12-07T05:25:02.713Z,84.35
2022-12-07T05:26:02.699Z,84.35
2022-12-07T05:27:02.716Z,84.86
2022-12-07T05:28:02.728Z,85.28
2022-12-07T05:29:02.691Z,85.46
2022-12-07T05:30:02.866Z,85.61
2022-12-07T05:31:02.702Z,85.61
2022-12-07T05:32:02.774Z,85.95
2022-12-07T05:33:02.705Z,85.95
2022-12-07T05:34:02.697Z,86.18
2022-12-07T05:35:02.700Z,86.55
2022-12-07T05:36:02.683Z,86.51
2022-12-07T05:37:02.681Z,86.44
2022-12-07T05:38:02.712Z,86.26
2022-12-07T05:39:02.687Z,86.31
2022-12-07T05:40:03.020Z,86.49
2022-12-07T05:41:02.717Z,86.49
2022-12-07T05:42:02.682Z,86.59
2022-12-07T05:43:04.531Z,86.63
2022-12-07T05:44:02.688Z,86.47
2022-12-07T05:45:02.682Z,86.11
2022-12-07T05:46:02.755Z,85.83
2022-12-07T05:47:02.678Z,86.09
2022-12-07T05:48:02.712Z,86.16
2022-12-07T05:49:02.686Z,86.05
2022-12-07T05:50:02.919Z,86.32
2022-12-07T05:51:02.683Z,86.21
2022-12-07T05:52:02.693Z,86.17
2022-12-07T05:53:02.718Z,85.82
2022-12-07T05:54:02.684Z,85.73
2022-12-07T05:55:02.700Z,85.95
2022-12-07T05:56:02.698Z,85.71
2022-12-07T05:57:02.677Z,85.35
2022-12-07T05:58:02.702Z,85.06
2022-12-07T05:59:02.691Z,84.85
2022-12-07T06:00:03.026Z,84.9
2022-12-07T06:01:02.702Z,84.59
2022-12-07T06:02:02.994Z,84.61
2022-12-07T06:03:02.842Z,83.64
2022-12-07T06:04:02.705Z,83.02
2022-12-07T06:05:02.698Z,82.54
2022-12-07T06:06:02.729Z,82.7
2022-12-07T06:07:02.702Z,82.53
2022-12-07T06:08:05.863Z,82.9
2022-12-07T06:09:02.698Z,82.9
2022-12-07T06:10:03.074Z,82.65
2022-12-07T06:11:02.698Z,82.58
2022-12-07T06:12:02.691Z,82.65
2022-12-07T06:13:02.704Z,82.94
2022-12-07T06:14:02.712Z,82.34
2022-12-07T06:15:02.693Z,82.23
2022-12-07T06:16:02.753Z,81.97
2022-12-07T06:17:02.790Z,82
2022-12-07T06:18:02.708Z,82.11
2022-12-07T06:19:02.692Z,82.24
2022-12-07T06:20:03.099Z,82.23
2022-12-07T06:21:02.688Z,82.43
2022-12-07T06:22:02.694Z,82.24
2022-12-07T06:23:02.708Z,81.83
2022-12-07T06:24:02.697Z,81.79
2022-12-07T06:25:06.991Z,81.19
2022-12-07T06:26:02.686Z,81.49
2022-12-07T06:27:02.696Z,81.46
2022-12-07T06:28:02.707Z,81.61
2022-12-07T06:29:02.702Z,81.03
2022-12-07T06:30:02.895Z,80.8
2022-12-07T06:31:02.703Z,80.8
2022-12-07T06:32:02.760Z,80.57
2022-12-07T06:33:02.713Z,80.17
2022-12-07T06:34:02.695Z,80.2
2022-12-07T06:35:02.689Z,80.02
2022-12-07T06:36:02.695Z,79.85
2022-12-07T06:37:02.697Z,79.55
2022-12-07T06:38:02.704Z,79.86
2022-12-07T06:39:02.698Z,80.15
2022-12-07T06:40:03.028Z,79.92
2022-12-07T06:41:02.692Z,79.95
2022-12-07T06:42:02.701Z,80.36
2022-12-07T06:43:02.702Z,80.56
2022-12-07T06:44:02.699Z,80.84
2022-12-07T06:45:02.697Z,80.9
2022-12-07T06:46:02.739Z,81.42
2022-12-07T06:47:31.949Z,80.98
2022-12-07T06:48:02.713Z,81.01
2022-12-07T06:49:02.678Z,81.22
2022-12-07T06:50:03.047Z,80.94
2022-12-07T06:51:02.682Z,80.93
2022-12-07T06:52:02.675Z,81.15
2022-12-07T06:53:02.714Z,81.15
2022-12-07T06:54:02.690Z,80.95
2022-12-07T06:55:02.688Z,80.44
2022-12-07T06:56:02.778Z,80.09
2022-12-07T06:57:02.684Z,79.66
2022-12-07T06:58:02.706Z,80.05
2022-12-07T06:59:02.677Z,79.96
2022-12-07T07:00:03.198Z,80.06
2022-12-07T07:01:02.735Z,80.64
2022-12-07T07:02:02.815Z,80.93
2022-12-07T07:03:02.706Z,81.34
2022-12-07T07:04:02.680Z,80.42
2022-12-07T07:05:02.695Z,79.85
2022-12-07T07:06:02.682Z,78.89
2022-12-07T07:07:02.683Z,78.14
2022-12-07T07:08:21.771Z,78.46
2022-12-07T07:09:02.777Z,78
2022-12-07T07:10:02.971Z,77.54
2022-12-07T07:11:02.705Z,77.78
2022-12-07T07:12:02.699Z,77.86
2022-12-07T07:13:02.714Z,77.27
2022-12-07T07:14:02.690Z,77.36
2022-12-07T07:15:02.702Z,77.1
2022-12-07T07:16:02.701Z,76.83
2022-12-07T07:17:02.773Z,76.83
2022-12-07T07:18:07.516Z,76.93
2022-12-07T07:19:02.695Z,76.84
2022-12-07T07:20:02.961Z,76.76
2022-12-07T07:21:02.703Z,77.02
2022-12-07T07:22:02.699Z,76.32
2022-12-07T07:23:02.711Z,76.03
2022-12-07T07:24:02.710Z,75.76
2022-12-07T07:25:02.696Z,75.76
2022-12-07T07:26:02.678Z,76.11
2022-12-07T07:27:02.691Z,76.22
2022-12-07T07:28:02.703Z,76.32
2022-12-07T07:29:02.700Z,76.08
2022-12-07T07:30:02.968Z,76.26
2022-12-07T07:31:02.815Z,76.19
2022-12-07T07:32:06.692Z,77.01
2022-12-07T07:33:02.712Z,76.68
2022-12-07T07:34:02.693Z,76.73
2022-12-07T07:35:02.700Z,76.89
2022-12-07T07:36:02.715Z,76.21
2022-12-07T07:37:02.697Z,75.83
2022-12-07T07:38:02.701Z,76.21
2022-12-07T07:39:02.698Z,76.84
2022-12-07T07:40:03.006Z,77.03
2022-12-07T07:41:02.706Z,76.34
2022-12-07T07:42:02.696Z,76.42
2022-12-07T07:43:02.696Z,75.97
2022-12-07T07:44:02.683Z,75.78
2022-12-07T07:45:02.734Z,76.14
2022-12-07T07:46:02.800Z,77.37
2022-12-07T07:47:02.692Z,77.62
2022-12-07T07:48:02.707Z,77.88
2022-12-07T07:49:02.719Z,77.31
2022-12-07T07:50:02.972Z,78.4
2022-12-07T07:51:02.698Z,78.93
2022-12-07T07:52:02.687Z,79.5
2022-12-07T07:53:02.715Z,79.42
2022-12-07T07:54:02.697Z,86.96
2022-12-07T07:55:02.695Z,80.12
2022-12-07T07:56:02.699Z,79.52
2022-12-07T07:57:02.683Z,79.85
2022-12-07T07:58:02.716Z,79.71
2022-12-07T07:59:02.689Z,80.49
2022-12-07T08:00:03.026Z,80.81
2022-12-07T08:01:02.745Z,80.66
2022-12-07T08:02:02.759Z,80.59
2022-12-07T08:03:02.790Z,80.54
2022-12-07T08:04:02.701Z,80.48
2022-12-07T08:05:02.761Z,80.92
2022-12-07T08:06:02.679Z,81.55
2022-12-07T08:07:02.681Z,80.78
2022-12-07T08:08:02.782Z,79.69
2022-12-07T08:09:02.720Z,79.54
2022-12-07T08:10:03.183Z,79.46
2022-12-07T08:11:02.747Z,81.19
2022-12-07T08:12:02.681Z,81.47
2022-12-07T08:13:02.715Z,81.47
2022-12-07T08:14:02.714Z,82.81
2022-12-07T08:15:02.684Z,85.42
2022-12-07T08:16:02.799Z,86.47
2022-12-07T08:17:02.689Z,86.62
2022-12-07T08:18:02.702Z,86.12
2022-12-07T08:19:02.711Z,87.05
2022-12-07T08:20:03.035Z,88.86
2022-12-07T08:21:02.690Z,87.52
2022-12-07T08:22:02.705Z,87.16
2022-12-07T08:23:02.709Z,88.19
2022-12-07T08:24:02.692Z,86.35
2022-12-07T08:25:02.705Z,86.89
2022-12-07T08:26:02.700Z,88.28
2022-12-07T08:27:02.704Z,88.37
2022-12-07T08:28:02.715Z,87.1
2022-12-07T08:29:02.702Z,86.57
2022-12-07T08:30:03.102Z,87.11
2022-12-07T08:31:02.782Z,87.87
2022-12-07T08:32:07.986Z,87.95
2022-12-07T08:33:02.724Z,87.46
2022-12-07T08:34:02.692Z,87.43
2022-12-07T08:35:02.715Z,88.92
2022-12-07T08:36:02.693Z,87.8
2022-12-07T08:37:02.722Z,88.22
2022-12-07T08:38:02.703Z,87.16
2022-12-07T08:39:30.497Z,87.13
2022-12-07T08:40:02.945Z,88.04
2022-12-07T08:41:02.697Z,86.82
2022-12-07T08:42:02.682Z,86.29
2022-12-07T08:43:02.713Z,86.97
2022-12-07T08:44:02.690Z,89.06
2022-12-07T08:45:02.694Z,88.85
2022-12-07T08:46:02.744Z,88.87
2022-12-07T08:47:02.696Z,87.53
2022-12-07T08:48:02.715Z,88.57
2022-12-07T08:49:02.697Z,87.9
2022-12-07T08:50:03.005Z,88.67
2022-12-07T08:51:02.697Z,89.32
2022-12-07T08:52:02.694Z,87.91
2022-12-07T08:53:02.703Z,88.74
2022-12-07T08:54:02.712Z,88.74
2022-12-07T08:55:02.691Z,88.44
2022-12-07T08:56:02.766Z,89.15
2022-12-07T08:57:02.680Z,89.15
2022-12-07T08:58:02.713Z,90.2
2022-12-07T08:59:02.688Z,90.33
2022-12-07T09:00:02.996Z,89.39
2022-12-07T09:01:02.701Z,89.5
2022-12-07T09:02:02.801Z,88.7
2022-12-07T09:03:02.717Z,90.37
2022-12-07T09:04:02.693Z,90.67
2022-12-07T09:05:02.697Z,91.09
2022-12-07T09:06:02.839Z,90.55
2022-12-07T09:07:02.851Z,90.17
2022-12-07T09:08:02.772Z,91.25
2022-12-07T09:09:02.677Z,90.82
2022-12-07T09:10:02.911Z,91.02
2022-12-07T09:11:02.677Z,90.45
2022-12-07T09:12:02.677Z,90.9
2022-12-07T09:13:02.717Z,90.1
2022-12-07T09:14:02.678Z,89.95
2022-12-07T09:15:02.680Z,89.57
2022-12-07T09:16:02.786Z,89.79
2022-12-07T09:17:02.676Z,88.79
2022-12-07T09:18:02.704Z,89.44
2022-12-07T09:19:02.685Z,89.11
2022-12-07T09:20:02.932Z,88.85
2022-12-07T09:21:02.694Z,89.16
2022-12-07T09:22:02.682Z,88.71
2022-12-07T09:23:02.705Z,88.48
2022-12-07T09:24:02.701Z,87.91
2022-12-07T09:25:02.728Z,88.58
2022-12-07T09:26:07.443Z,88.27
2022-12-07T09:27:02.704Z,87.46
2022-12-07T09:28:02.698Z,87.19
2022-12-07T09:29:02.704Z,86.55
2022-12-07T09:30:03.069Z,86.88
2022-12-07T09:31:23.227Z,86.84
2022-12-07T09:32:05.455Z,86.9
2022-12-07T09:33:02.710Z,86.76
2022-12-07T09:34:02.821Z,87.2
2022-12-07T09:35:02.687Z,87.05
2022-12-07T09:36:02.694Z,87.05
2022-12-07T09:37:02.684Z,86.96
2022-12-07T09:38:02.705Z,87.13
2022-12-07T09:39:02.717Z,87.07
2022-12-07T09:40:03.088Z,86.86
2022-12-07T09:41:02.685Z,87.29
2022-12-07T09:42:02.696Z,87.34
2022-12-07T09:43:02.818Z,87.66
2022-12-07T09:44:02.687Z,87.78
2022-12-07T09:45:02.699Z,87.63
2022-12-07T09:46:02.773Z,87.29
2022-12-07T09:47:02.705Z,87.53
2022-12-07T09:48:02.710Z,87.51
2022-12-07T09:49:02.680Z,87.51
2022-12-07T09:50:02.948Z,87.66
2022-12-07T09:51:02.699Z,87.81
2022-12-07T09:52:02.724Z,87.77
2022-12-07T09:53:02.719Z,87.66
2022-12-07T09:54:02.702Z,86.61
2022-12-07T09:55:02.914Z,86.17
2022-12-07T09:56:02.716Z,86.01
2022-12-07T09:57:02.695Z,85.6
2022-12-07T09:58:02.706Z,85.34
2022-12-07T09:59:02.719Z,84.83
2022-12-07T10:00:02.701Z,84.44
2022-12-07T10:01:02.704Z,84.87
2022-12-07T10:02:02.903Z,84.82
2022-12-07T10:03:02.699Z,84.8
2022-12-07T10:04:02.699Z,85.27
2022-12-07T10:05:03.074Z,85.51
2022-12-07T10:06:02.695Z,85.43
2022-12-07T10:07:02.700Z,84.85
2022-12-07T10:08:02.797Z,84.81
2022-12-07T10:09:02.696Z,85.5
2022-12-07T10:10:02.687Z,84.96
2022-12-07T10:11:02.693Z,84.2
2022-12-07T10:12:02.695Z,84.55
2022-12-07T10:13:02.687Z,84.46
2022-12-07T10:14:02.676Z,84.23
2022-12-07T10:15:07.720Z,84.33
2022-12-07T10:16:06.994Z,84.33
2022-12-07T10:17:02.692Z,85
2022-12-07T10:18:02.712Z,84.93
2022-12-07T10:19:02.676Z,85.51
2022-12-07T10:20:02.687Z,85.12
2022-12-07T10:21:02.705Z,85.27
2022-12-07T10:22:02.693Z,85.13
2022-12-07T10:23:02.702Z,84.64
2022-12-07T10:24:02.679Z,84.71
2022-12-07T10:25:03.056Z,84.47
2022-12-07T10:26:02.700Z,84.56
2022-12-07T10:27:02.693Z,84.81
2022-12-07T10:28:02.716Z,85.03
2022-12-07T10:29:02.681Z,84.83
2022-12-07T10:30:02.683Z,84.61
2022-12-07T10:31:02.789Z,84.49
2022-12-07T10:32:02.737Z,84.83
2022-12-07T10:33:02.692Z,85.08
2022-12-07T10:34:02.698Z,84.62
2022-12-07T10:35:02.964Z,84.42
2022-12-07T10:36:02.697Z,83.86
2022-12-07T10:37:02.699Z,83.63
2022-12-07T10:38:02.722Z,84.07
2022-12-07T10:39:02.698Z,84.2
2022-12-07T10:40:02.677Z,84.42
2022-12-07T10:41:02.689Z,84.1
2022-12-07T10:42:02.690Z,83.95
2022-12-07T10:43:02.703Z,83.82
2022-12-07T10:44:02.683Z,84.25
2022-12-07T10:45:03.080Z,84.15
2022-12-07T10:46:04.535Z,84.09
2022-12-07T10:47:02.735Z,84.58
2022-12-07T10:48:02.715Z,84.39
2022-12-07T10:49:02.715Z,83.89
2022-12-07T10:50:02.703Z,83.53
2022-12-07T10:51:02.692Z,83.4
2022-12-07T10:52:02.943Z,83.87
2022-12-07T10:53:02.702Z,83.64
2022-12-07T10:54:02.697Z,83.84
2022-12-07T10:55:03.002Z,83.91
2022-12-07T10:56:02.692Z,83.87
2022-12-07T10:57:02.692Z,84.03
2022-12-07T10:58:02.699Z,84.01
2022-12-07T10:59:02.692Z,84.05
2022-12-07T11:00:02.715Z,84.16
2022-12-07T11:01:02.757Z,84.17
2022-12-07T11:02:02.727Z,84.14
2022-12-07T11:03:02.709Z,84.12
2022-12-07T11:04:02.688Z,83.85
2022-12-07T11:05:02.943Z,83.98
2022-12-07T11:06:02.695Z,83.7
2022-12-07T11:07:02.694Z,83.4
2022-12-07T11:08:02.797Z,82.93
2022-12-07T11:09:02.692Z,82.68
2022-12-07T11:10:20.544Z,82.9
2022-12-07T11:11:02.690Z,82.49
2022-12-07T11:12:02.696Z,82.49
2022-12-07T11:13:02.703Z,82.67
2022-12-07T11:14:02.696Z,82.89
2022-12-07T11:15:02.693Z,82.85
2022-12-07T11:16:02.778Z,82.65
2022-12-07T11:17:02.695Z,83
2022-12-07T11:18:02.699Z,83.21
2022-12-07T11:19:02.693Z,82.96
2022-12-07T11:20:03.029Z,82.93
2022-12-07T11:21:02.678Z,82.57
2022-12-07T11:22:02.679Z,82.58
2022-12-07T11:23:02.712Z,82.43
2022-12-07T11:24:02.697Z,82.87
2022-12-07T11:25:02.689Z,82.94
2022-12-07T11:26:02.680Z,82.66
2022-12-07T11:27:02.678Z,82.11
2022-12-07T11:28:02.706Z,82.74
2022-12-07T11:29:02.707Z,83.38
2022-12-07T11:30:03.021Z,82.54
2022-12-07T11:31:02.925Z,82.64
2022-12-07T11:32:02.728Z,82.24
2022-12-07T11:33:02.703Z,82.04
2022-12-07T11:34:02.683Z,81.29
2022-12-07T11:35:02.693Z,81.54
2022-12-07T11:36:02.773Z,81.17
2022-12-07T11:37:02.681Z,80.94
2022-12-07T11:38:02.702Z,81.82
2022-12-07T11:39:02.675Z,81.39
2022-12-07T11:40:02.964Z,81.04
2022-12-07T11:41:02.690Z,81.83
2022-12-07T11:42:02.692Z,81.83
2022-12-07T11:43:02.703Z,81.65
2022-12-07T11:44:02.690Z,80.8
2022-12-07T11:45:02.689Z,80.68
2022-12-07T11:46:02.705Z,81.93
2022-12-07T11:47:02.773Z,82.03
2022-12-07T11:48:02.709Z,81.94
2022-12-07T11:49:02.695Z,80.81
2022-12-07T11:50:02.704Z,80.18
2022-12-07T11:51:02.690Z,80.02
2022-12-07T11:52:02.697Z,79.98
2022-12-07T11:53:02.706Z,79.59
2022-12-07T11:54:02.695Z,80.07
2022-12-07T11:55:02.698Z,80.97
2022-12-07T11:56:02.691Z,80.72
2022-12-07T11:57:02.680Z,80.1
2022-12-07T11:58:02.699Z,80.58
2022-12-07T11:59:02.675Z,81.82
2022-12-07T12:00:03.040Z,81.75
2022-12-07T12:01:02.697Z,82.61
2022-12-07T12:02:02.743Z,83.03
2022-12-07T12:03:02.768Z,83.06
2022-12-07T12:04:02.691Z,82.71
2022-12-07T12:05:02.684Z,82.13
2022-12-07T12:06:02.690Z,82.33
2022-12-07T12:10:03.161Z,81.16
2022-12-07T12:11:02.697Z,82.65
2022-12-07T12:14:33.093Z,82.25
2022-12-07T12:15:03.704Z,82.32
2022-12-07T12:16:02.726Z,82.28
2022-12-07T12:17:02.683Z,82.73
2022-12-07T12:18:02.699Z,83.57
2022-12-07T12:19:02.697Z,83.57
2022-12-07T12:20:02.687Z,83
2022-12-07T12:21:02.693Z,83.86
2022-12-07T12:22:02.697Z,84.38
2022-12-07T12:23:02.795Z,84.1
2022-12-07T12:24:02.691Z,84.86
2022-12-07T12:25:02.961Z,85.25
2022-12-07T12:26:02.756Z,84.7
2022-12-07T12:27:02.698Z,83.51
2022-12-07T12:28:02.684Z,83.85
2022-12-07T12:29:02.676Z,84.24
2022-12-07T12:30:02.687Z,84.4
2022-12-07T12:31:02.700Z,84.86
2022-12-07T12:32:02.750Z,83.89
2022-12-07T12:33:02.717Z,83.31
2022-12-07T12:34:02.675Z,83.25
2022-12-07T12:35:03.333Z,83.2
2022-12-07T12:36:02.762Z,83.36
2022-12-07T12:37:02.680Z,83.62
2022-12-07T12:38:02.710Z,83.53
2022-12-07T12:39:02.686Z,83.49
2022-12-07T12:40:02.684Z,84.31
2022-12-07T12:41:02.681Z,84.47
2022-12-07T12:42:02.714Z,84.2
2022-12-07T12:43:02.694Z,83.69
2022-12-07T12:44:02.689Z,83.97
2022-12-07T12:45:02.958Z,84.29
2022-12-07T12:46:02.778Z,92.56
2022-12-07T12:47:02.675Z,84.12
2022-12-07T12:48:02.717Z,84.08
2022-12-07T12:49:02.691Z,84.06
2022-12-07T12:50:02.676Z,84.73
2022-12-07T12:51:02.676Z,84.92
2022-12-07T12:52:05.498Z,85.31
2022-12-07T12:53:02.714Z,85.49
2022-12-07T12:54:02.703Z,86.58
2022-12-07T12:55:03.029Z,86.54
2022-12-07T12:56:02.691Z,86.94
2022-12-07T12:57:03.583Z,86.66
2022-12-07T12:58:02.708Z,86.52
2022-12-07T12:59:02.697Z,86.65
2022-12-07T13:00:02.684Z,86.79
2022-12-07T13:01:02.762Z,86.92
2022-12-07T13:02:02.742Z,87.25